Time;durP1;ratioP1;P1;durP2;ratioP2;P2;SDS_P1;SDS_P2;PMS_P1;PMS_P2;Temp;Humidity;BMP_temperature;BMP_pressure;BME280_temperature;BME280_humidity;BME280_pressure;Samples;Min_cycle;Max_cycle;Signal;HPM_P1;HPM_P2
2021/09/07 00:01:21;;;;;;;20.52;11.57;;;17.60;99.90;;;;;;7408348;19;20013;-88
2021/09/07 00:03:50;;;;;;;19.60;12.98;;;17.50;99.90;;;;;;7425989;19;20035;-88
2021/09/07 00:06:20;;;;;;;20.17;11.85;;;17.50;99.90;;;;;;7414638;19;20416;-89
2021/09/07 00:08:54;;;;;;;20.33;12.50;;;17.50;99.90;;;;;;7410594;19;20350;-88
2021/09/07 00:11:26;;;;;;;21.45;12.07;;;17.50;99.90;;;;;;7406806;19;20026;-88
2021/09/07 00:14:01;;;;;;;19.42;12.48;;;17.40;99.90;;;;;;7418288;19;20035;-87
2021/09/07 00:16:30;;;;;;;17.73;11.02;;;17.40;99.90;;;;;;7431519;19;20043;-87
2021/09/07 00:19:00;;;;;;;18.80;11.75;;;17.40;99.90;;;;;;7410918;19;20019;-87
2021/09/07 00:21:32;;;;;;;19.42;11.52;;;17.30;99.90;;;;;;7407019;19;20017;-87
2021/09/07 00:24:02;;;;;;;19.48;11.95;;;17.30;99.90;;;;;;7406832;19;20312;-87
2021/09/07 00:26:33;;;;;;;20.65;11.60;;;17.30;99.90;;;;;;7405555;19;20011;-87
2021/09/07 00:29:08;;;;;;;20.35;11.13;;;17.30;99.90;;;;;;7403121;19;20078;-88
2021/09/07 00:31:37;;;;;;;20.85;11.75;;;17.30;99.90;;;;;;7402576;19;20014;-88
2021/09/07 00:34:10;;;;;;;20.70;12.43;;;17.20;99.90;;;;;;7405904;19;20306;-87
2021/09/07 00:36:39;;;;;;;18.77;11.65;;;17.30;99.90;;;;;;7405307;19;20017;-87
2021/09/07 00:39:08;;;;;;;24.15;11.25;;;17.30;99.90;;;;;;7406125;19;20016;-88
2021/09/07 00:41:40;;;;;;;18.40;11.57;;;17.30;99.90;;;;;;7404813;19;20048;-87
2021/09/07 00:44:22;;;;;;;18.75;11.57;;;17.30;99.90;;;;;;7405351;19;20014;-88
2021/09/07 00:46:53;;;;;;;17.35;11.40;;;17.30;99.90;;;;;;7405600;19;20021;-87
2021/09/07 00:49:27;;;;;;;17.23;11.07;;;17.40;99.90;;;;;;7405740;19;20010;-87
2021/09/07 00:52:00;;;;;;;19.48;11.65;;;17.40;99.90;;;;;;7403050;19;20014;-87
2021/09/07 00:54:33;;;;;;;17.73;12.23;;;17.40;99.90;;;;;;7405005;19;20421;-87
2021/09/07 00:57:07;;;;;;;25.38;13.27;;;17.40;99.90;;;;;;7404953;19;20017;-87
2021/09/07 00:59:40;;;;;;;18.90;12.57;;;17.40;99.90;;;;;;7404281;19;20018;-87
2021/09/07 01:02:12;;;;;;;22.55;12.30;;;17.50;99.90;;;;;;7405658;19;20026;-87
2021/09/07 01:04:44;;;;;;;19.55;11.73;;;17.50;99.90;;;;;;7404838;19;20011;-87
2021/09/07 01:07:16;;;;;;;21.83;12.52;;;17.50;99.90;;;;;;7417393;19;20080;-86
2021/09/07 01:09:47;;;;;;;19.17;11.60;;;17.50;99.90;;;;;;7421095;19;20022;-87
2021/09/07 01:12:17;;;;;;;21.00;12.45;;;17.50;99.90;;;;;;7412060;19;20333;-88
2021/09/07 01:14:50;;;;;;;18.63;11.63;;;17.50;99.90;;;;;;7412889;19;20010;-87
2021/09/07 01:17:22;;;;;;;22.05;12.20;;;17.50;99.90;;;;;;7409849;19;20015;-86
2021/09/07 01:19:53;;;;;;;21.52;13.20;;;17.50;99.90;;;;;;7411502;19;20460;-86
2021/09/07 01:22:26;;;;;;;21.73;12.40;;;17.40;99.90;;;;;;7406079;19;20007;-86
2021/09/07 01:24:58;;;;;;;22.15;12.82;;;17.40;99.90;;;;;;7400012;19;20014;-87
2021/09/07 01:27:32;;;;;;;20.23;11.93;;;17.30;99.90;;;;;;7408108;19;20015;-86
2021/09/07 01:30:04;;;;;;;20.80;11.63;;;17.30;99.90;;;;;;7416977;19;20007;-86
2021/09/07 01:32:41;;;;;;;18.45;11.15;;;17.30;99.90;;;;;;7428453;19;20015;-84
2021/09/07 01:35:12;;;;;;;18.80;11.52;;;17.20;99.90;;;;;;7431538;19;20420;-87
2021/09/07 01:37:42;;;;;;;17.95;11.43;;;17.20;99.90;;;;;;7428959;19;20003;-84
2021/09/07 01:40:15;;;;;;;17.25;11.55;;;17.20;99.90;;;;;;7432455;19;20006;-84
2021/09/07 01:42:44;;;;;;;17.48;11.38;;;17.20;99.90;;;;;;7432310;19;20010;-85
2021/09/07 01:45:14;;;;;;;20.55;11.82;;;17.10;99.90;;;;;;7427642;19;20023;-87
2021/09/07 01:47:50;;;;;;;19.60;11.73;;;17.20;99.90;;;;;;7408966;19;20035;-87
2021/09/07 01:50:22;;;;;;;16.63;10.80;;;17.10;99.90;;;;;;7413727;19;20022;-87
2021/09/07 01:52:53;;;;;;;19.98;11.93;;;17.20;99.90;;;;;;7402891;19;20022;-87
2021/09/07 01:55:25;;;;;;;21.80;10.52;;;17.20;99.90;;;;;;7404439;19;20006;-86
2021/09/07 01:57:57;;;;;;;21.48;12.15;;;17.20;99.90;;;;;;7404904;19;20006;-86
2021/09/07 02:00:28;;;;;;;19.23;11.35;;;17.30;99.90;;;;;;7401508;19;20691;-86
2021/09/07 02:02:58;;;;;;;18.00;11.77;;;17.30;99.90;;;;;;7422642;19;20063;-86
2021/09/07 02:05:30;;;;;;;21.13;11.18;;;17.30;99.90;;;;;;7429659;19;20010;-86
2021/09/07 02:08:01;;;;;;;18.40;11.63;;;17.30;99.90;;;;;;7420750;19;20022;-87
2021/09/07 02:10:33;;;;;;;21.33;11.98;;;17.30;99.90;;;;;;7429991;19;20056;-85
2021/09/07 02:13:04;;;;;;;19.67;11.88;;;17.30;99.90;;;;;;7408284;19;20014;-84
2021/09/07 02:15:34;;;;;;;20.50;12.00;;;17.30;99.90;;;;;;7403403;19;20295;-87
2021/09/07 02:18:04;;;;;;;22.30;12.32;;;17.30;99.90;;;;;;7403812;19;20015;-87
2021/09/07 02:20:35;;;;;;;19.42;11.88;;;17.30;99.90;;;;;;7406465;19;20435;-86
2021/09/07 02:23:08;;;;;;;19.85;11.82;;;17.30;99.90;;;;;;7408270;19;20011;-88
2021/09/07 02:25:41;;;;;;;18.85;11.55;;;17.30;99.90;;;;;;7401734;19;20429;-86
2021/09/07 02:28:14;;;;;;;19.88;12.50;;;17.40;99.90;;;;;;7401761;19;20014;-87
2021/09/07 02:30:46;;;;;;;16.05;11.45;;;17.30;99.90;;;;;;7416494;19;20021;-87
2021/09/07 02:33:16;;;;;;;18.05;12.02;;;17.30;99.90;;;;;;7419130;19;20022;-87
2021/09/07 02:35:47;;;;;;;17.88;11.80;;;17.30;99.90;;;;;;7408855;19;20360;-86
2021/09/07 02:38:16;;;;;;;19.95;12.50;;;17.30;99.90;;;;;;7403194;19;20366;-87
2021/09/07 02:40:49;;;;;;;18.00;12.18;;;17.40;99.90;;;;;;7402740;19;20086;-87
2021/09/07 02:43:19;;;;;;;17.20;11.40;;;17.30;99.90;;;;;;7400892;19;20319;-86
2021/09/07 02:45:48;;;;;;;19.77;12.35;;;17.30;99.90;;;;;;7401222;19;20484;-87
2021/09/07 02:48:18;;;;;;;19.48;11.07;;;17.20;99.90;;;;;;7399258;19;20024;-86
2021/09/07 02:50:49;;;;;;;19.15;12.00;;;17.20;99.90;;;;;;7401110;19;20440;-86
2021/09/07 02:53:19;;;;;;;17.98;11.38;;;17.20;99.90;;;;;;7401444;19;20045;-86
2021/09/07 02:55:52;;;;;;;22.48;12.50;;;17.20;99.90;;;;;;7399901;19;20085;-86
2021/09/07 02:58:21;;;;;;;21.63;12.63;;;17.20;99.90;;;;;;7404616;19;20018;-85
2021/09/07 03:00:53;;;;;;;20.85;12.00;;;17.20;99.90;;;;;;7405715;19;20007;-86
2021/09/07 03:03:24;;;;;;;17.15;11.23;;;17.20;99.90;;;;;;7403447;19;20016;-86
2021/09/07 03:05:57;;;;;;;22.70;12.10;;;17.20;99.90;;;;;;7403559;19;20048;-85
2021/09/07 03:08:26;;;;;;;18.42;11.77;;;17.10;99.90;;;;;;7405375;19;20006;-86
2021/09/07 03:11:01;;;;;;;22.33;12.57;;;17.10;99.90;;;;;;7403670;19;20022;-86
2021/09/07 03:13:34;;;;;;;21.63;11.85;;;17.10;99.90;;;;;;7419415;19;20017;-85
2021/09/07 03:16:04;;;;;;;18.25;11.27;;;17.00;99.90;;;;;;7416659;19;20014;-86
2021/09/07 03:18:35;;;;;;;20.13;11.70;;;17.00;99.90;;;;;;7401929;19;20018;-87
2021/09/07 03:21:05;;;;;;;21.90;13.25;;;17.00;99.90;;;;;;7399073;19;20436;-87
2021/09/07 03:23:35;;;;;;;20.58;12.60;;;17.00;99.90;;;;;;7400950;19;20089;-87
2021/09/07 03:26:09;;;;;;;18.45;11.93;;;17.00;99.90;;;;;;7401285;19;20014;-87
2021/09/07 03:28:39;;;;;;;19.98;11.93;;;17.00;99.90;;;;;;7400522;19;20007;-87
2021/09/07 03:31:10;;;;;;;19.40;12.20;;;17.00;99.90;;;;;;7399517;19;20015;-85
2021/09/07 03:33:41;;;;;;;21.42;12.52;;;17.00;99.90;;;;;;7399479;19;20448;-86
2021/09/07 03:36:11;;;;;;;18.85;12.05;;;17.00;99.90;;;;;;7405206;19;20003;-88
2021/09/07 03:38:42;;;;;;;21.90;12.65;;;17.00;99.90;;;;;;7404411;19;20011;-87
2021/09/07 03:41:16;;;;;;;21.23;11.25;;;17.00;99.90;;;;;;7410973;19;20018;-86
2021/09/07 03:43:48;;;;;;;17.73;11.40;;;17.00;99.90;;;;;;7416298;19;20022;-87
2021/09/07 03:46:21;;;;;;;22.42;11.50;;;17.00;99.90;;;;;;7400836;19;20006;-88
2021/09/07 03:48:52;;;;;;;22.70;13.15;;;17.00;99.90;;;;;;7404050;19;20011;-87
2021/09/07 03:51:23;;;;;;;20.15;12.05;;;17.00;99.90;;;;;;7430025;19;20028;-87
2021/09/07 03:53:55;;;;;;;19.88;12.75;;;17.00;99.90;;;;;;7424720;19;20417;-87
2021/09/07 03:56:29;;;;;;;23.42;13.43;;;17.00;99.90;;;;;;7406828;19;20014;-88
2021/09/07 03:58:58;;;;;;;21.58;12.98;;;17.00;99.90;;;;;;7406163;19;20110;-88
2021/09/07 04:01:28;;;;;;;22.85;11.77;;;17.00;99.90;;;;;;7408617;19;20011;-88
2021/09/07 04:03:58;;;;;;;21.23;12.00;;;17.00;99.90;;;;;;7405002;19;20017;-87
2021/09/07 04:06:27;;;;;;;23.60;13.80;;;17.00;99.90;;;;;;7407752;19;20010;-89
2021/09/07 04:08:59;;;;;;;22.42;13.65;;;17.40;99.90;;;;;;7407367;19;20094;-90
2021/09/07 04:11:31;;;;;;;24.73;13.90;;;17.30;99.90;;;;;;7427493;19;20003;-90
2021/09/07 04:14:01;;;;;;;22.75;13.77;;;17.20;99.90;;;;;;7415603;19;20013;-93
2021/09/07 04:16:33;;;;;;;25.92;13.32;;;17.00;99.90;;;;;;7409709;19;20014;-90
2021/09/07 04:19:04;;;;;;;25.85;13.35;;;16.90;99.90;;;;;;7406260;19;20007;-92
2021/09/07 04:21:35;;;;;;;25.83;14.07;;;16.80;99.90;;;;;;7408387;19;20022;-91
2021/09/07 04:24:04;;;;;;;26.85;14.10;;;16.80;99.90;;;;;;7406635;19;20070;-89
2021/09/07 04:26:39;;;;;;;26.58;13.75;;;16.80;99.90;;;;;;7405806;19;20021;-89
2021/09/07 04:29:09;;;;;;;29.60;14.55;;;16.80;99.90;;;;;;7415945;19;20018;-88
2021/09/07 04:31:40;;;;;;;27.15;13.80;;;16.80;99.90;;;;;;7423247;19;20010;-88
2021/09/07 04:34:09;;;;;;;29.50;15.10;;;16.70;99.90;;;;;;7418612;19;20098;-87
2021/09/07 04:36:39;;;;;;;26.20;13.82;;;16.60;99.90;;;;;;7419228;19;20006;-88
2021/09/07 04:39:08;;;;;;;27.08;14.23;;;16.50;99.90;;;;;;7419531;19;20014;-88
2021/09/07 04:41:41;;;;;;;29.50;14.43;;;16.60;99.90;;;;;;7420030;19;20011;-87
2021/09/07 04:44:13;;;;;;;22.35;13.07;;;16.80;99.90;;;;;;7423409;19;20007;-90
2021/09/07 04:46:45;;;;;;;27.15;13.77;;;16.90;99.90;;;;;;7407893;19;20010;-89
2021/09/07 04:49:16;;;;;;;26.88;14.07;;;16.70;99.90;;;;;;7408228;19;20420;-87
2021/09/07 04:51:46;;;;;;;28.95;13.30;;;16.70;99.90;;;;;;7406155;19;20018;-88
2021/09/07 04:54:17;;;;;;;25.77;14.07;;;16.60;99.90;;;;;;7410665;19;20470;-89
2021/09/07 04:56:50;;;;;;;25.13;13.57;;;16.60;99.90;;;;;;7405832;19;20014;-88
2021/09/07 04:59:20;;;;;;;28.88;13.43;;;16.60;99.90;;;;;;7408569;19;20014;-88
2021/09/07 05:01:49;;;;;;;26.02;14.77;;;16.60;99.90;;;;;;7412035;19;20319;-87
2021/09/07 05:04:21;;;;;;;26.83;14.27;;;16.70;99.90;;;;;;7403830;19;20069;-88
2021/09/07 05:06:53;;;;;;;25.80;13.85;;;16.70;99.90;;;;;;7407473;19;20057;-88
2021/09/07 05:09:22;;;;;;;25.80;13.93;;;16.70;99.90;;;;;;7410270;19;20042;-87
2021/09/07 05:11:54;;;;;;;23.45;14.13;;;16.70;99.90;;;;;;7407090;19;20014;-87
2021/09/07 05:14:27;;;;;;;24.35;13.57;;;16.80;99.90;;;;;;7407480;19;20054;-88
2021/09/07 05:16:57;;;;;;;25.85;14.55;;;16.80;99.90;;;;;;7417098;19;20007;-87
2021/09/07 05:19:27;;;;;;;25.92;13.43;;;16.80;99.90;;;;;;7407797;19;20046;-87
2021/09/07 05:21:59;;;;;;;26.27;13.70;;;16.90;99.90;;;;;;7402917;19;20447;-88
2021/09/07 05:24:34;;;;;;;21.38;12.98;;;17.00;99.90;;;;;;7403685;19;20222;-88
2021/09/07 05:27:08;;;;;;;23.15;13.52;;;17.00;99.90;;;;;;7406402;19;20011;-88
2021/09/07 05:29:38;;;;;;;31.50;17.67;;;17.10;99.90;;;;;;7405792;19;20015;-87
2021/09/07 05:32:11;;;;;;;35.92;23.75;;;17.10;99.90;;;;;;7402364;19;20306;-88
2021/09/07 05:34:43;;;;;;;32.42;16.60;;;17.10;99.90;;;;;;7407294;19;20048;-87
2021/09/07 05:37:15;;;;;;;33.80;17.05;;;17.10;99.90;;;;;;7411898;19;20018;-88
2021/09/07 05:39:45;;;;;;;27.40;16.48;;;17.20;99.90;;;;;;7416335;19;20018;-87
2021/09/07 05:42:17;;;;;;;23.63;14.20;;;17.20;99.90;;;;;;7407950;19;20011;-87
2021/09/07 05:44:47;;;;;;;28.38;14.00;;;17.20;99.90;;;;;;7402988;19;20017;-87
2021/09/07 05:47:17;;;;;;;26.60;14.10;;;17.20;99.90;;;;;;7409792;19;20014;-89
2021/09/07 05:49:47;;;;;;;25.55;14.65;;;17.20;99.90;;;;;;7412663;19;20017;-88
2021/09/07 05:52:19;;;;;;;23.48;13.88;;;17.30;99.90;;;;;;7404135;19;20018;-87
2021/09/07 05:54:49;;;;;;;23.08;14.00;;;17.30;99.90;;;;;;7406522;19;20007;-87
2021/09/07 05:57:21;;;;;;;20.50;12.82;;;17.30;99.90;;;;;;7404263;19;20086;-88
2021/09/07 05:59:51;;;;;;;23.15;13.40;;;17.30;99.90;;;;;;7401258;19;20015;-87
2021/09/07 06:02:20;;;;;;;31.50;14.93;;;17.30;99.90;;;;;;7403079;19;20009;-88
2021/09/07 06:04:49;;;;;;;23.20;12.20;;;17.40;99.90;;;;;;7402645;19;20302;-87
2021/09/07 06:07:26;;;;;;;23.23;13.75;;;17.40;99.90;;;;;;7402343;19;20031;-87
2021/09/07 06:09:58;;;;;;;28.15;13.75;;;17.40;99.90;;;;;;7401206;19;20010;-86
2021/09/07 06:12:30;;;;;;;24.98;12.82;;;17.40;99.90;;;;;;7400608;19;20079;-87
2021/09/07 06:15:02;;;;;;;24.75;13.73;;;17.40;99.90;;;;;;7403485;19;20048;-88
2021/09/07 06:17:33;;;;;;;22.85;13.55;;;17.40;99.90;;;;;;7408313;19;20002;-89
2021/09/07 06:20:03;;;;;;;24.80;13.38;;;17.40;99.90;;;;;;7416462;19;20061;-87
2021/09/07 06:22:32;;;;;;;25.77;13.65;;;17.60;99.90;;;;;;7401781;19;20019;-88
2021/09/07 06:25:03;;;;;;;25.10;14.43;;;17.50;99.90;;;;;;7403891;19;20003;-89
2021/09/07 06:27:37;;;;;;;28.67;14.25;;;17.60;99.90;;;;;;7407477;19;20060;-88
2021/09/07 06:30:09;;;;;;;22.45;13.05;;;17.70;99.90;;;;;;7401406;19;20097;-88
2021/09/07 06:32:40;;;;;;;21.00;12.85;;;17.80;99.90;;;;;;7400818;19;20019;-89
2021/09/07 06:35:14;;;;;;;24.88;13.20;;;17.90;99.90;;;;;;7405385;19;20086;-88
2021/09/07 06:37:44;;;;;;;26.67;13.82;;;18.00;99.90;;;;;;7400883;19;20018;-88
2021/09/07 06:40:15;;;;;;;24.55;14.10;;;18.10;99.90;;;;;;7399479;19;20079;-88
2021/09/07 06:42:47;;;;;;;24.65;14.10;;;18.30;99.90;;;;;;7403673;19;20424;-89
2021/09/07 06:45:19;;;;;;;20.58;12.48;;;18.40;99.90;;;;;;7397825;19;20021;-87
2021/09/07 06:47:48;;;;;;;24.42;14.00;;;18.50;99.90;;;;;;7403949;19;20006;-87
2021/09/07 06:50:18;;;;;;;25.65;14.13;;;18.60;99.10;;;;;;7400366;19;20346;-86
2021/09/07 06:52:49;;;;;;;19.55;11.98;;;18.70;98.90;;;;;;7400056;19;20043;-86
2021/09/07 06:55:21;;;;;;;25.50;15.38;;;18.70;98.70;;;;;;7402019;19;20014;-87
2021/09/07 06:57:56;;;;;;;28.58;13.68;;;18.80;98.70;;;;;;7400869;19;20007;-86
2021/09/07 07:00:30;;;;;;;22.77;13.07;;;18.90;98.50;;;;;;7398610;19;20006;-86
2021/09/07 07:03:01;;;;;;;22.77;13.15;;;19.00;98.30;;;;;;7401271;19;20469;-86
2021/09/07 07:05:33;;;;;;;23.10;13.57;;;19.10;97.60;;;;;;7403882;19;20019;-87
2021/09/07 07:08:03;;;;;;;26.42;13.65;;;19.30;97.50;;;;;;7398040;19;20435;-87
2021/09/07 07:10:34;;;;;;;27.20;13.48;;;19.40;97.20;;;;;;7400455;19;20019;-86
2021/09/07 07:13:22;;;;;;;22.52;11.60;;;19.60;96.80;;;;;;7401762;19;20011;-86
2021/09/07 07:15:57;;;;;;;26.73;13.52;;;19.90;96.50;;;;;;7400177;19;20007;-86
2021/09/07 07:21:27;;;;;;;22.88;13.18;;;20.30;95.30;;;;;;7400769;19;20444;-86
2021/09/07 07:23:59;;;;;;;23.15;13.00;;;20.60;94.60;;;;;;7417360;19;20025;-86
2021/09/07 07:26:28;;;;;;;24.63;12.40;;;20.70;94.10;;;;;;7406893;19;20015;-87
2021/09/07 07:29:01;;;;;;;23.80;12.45;;;20.80;93.80;;;;;;7410262;19;20098;-85
2021/09/07 07:31:30;;;;;;;23.70;13.50;;;20.90;93.30;;;;;;7419541;19;20020;-84
2021/09/07 07:34:03;;;;;;;19.40;12.00;;;20.90;92.90;;;;;;7421151;19;20013;-85
2021/09/07 07:36:35;;;;;;;29.05;15.23;;;20.90;92.90;;;;;;7425374;19;20010;-86
2021/09/07 07:39:07;;;;;;;33.85;14.45;;;21.00;92.60;;;;;;7410432;19;20006;-85
2021/09/07 07:41:41;;;;;;;25.33;15.02;;;20.90;92.50;;;;;;7422355;19;20018;-84
2021/09/07 07:44:23;;;;;;;24.20;13.40;;;20.90;92.60;;;;;;7432470;19;20002;-85
2021/09/07 07:46:56;;;;;;;26.85;13.88;;;20.90;92.40;;;;;;7433448;19;20015;-85
2021/09/07 07:49:28;;;;;;;27.83;14.25;;;20.90;92.30;;;;;;7436851;19;20002;-84
2021/09/07 07:52:01;;;;;;;21.85;12.68;;;21.00;92.00;;;;;;7433833;19;20065;-84
2021/09/07 07:54:30;;;;;;;23.15;13.60;;;21.20;91.90;;;;;;7421628;19;20204;-83
2021/09/07 07:57:03;;;;;;;25.40;13.63;;;21.40;91.70;;;;;;7416153;19;20014;-82
2021/09/07 07:59:35;;;;;;;27.35;14.73;;;21.50;91.30;;;;;;7407099;19;20026;-83
2021/09/07 08:02:06;;;;;;;22.85;12.57;;;21.70;90.80;;;;;;7404273;19;20302;-85
2021/09/07 08:04:39;;;;;;;21.27;12.30;;;21.80;90.30;;;;;;7406004;19;20098;-85
2021/09/07 08:07:11;;;;;;;25.63;13.25;;;21.90;90.10;;;;;;7404736;19;20015;-84
2021/09/07 08:09:40;;;;;;;20.92;13.05;;;22.10;89.70;;;;;;7406305;19;20009;-85
2021/09/07 08:12:16;;;;;;;20.73;12.77;;;22.20;89.00;;;;;;7405300;19;20010;-85
2021/09/07 08:14:48;;;;;;;25.75;13.40;;;22.20;88.40;;;;;;7403698;19;20099;-85
2021/09/07 08:17:19;;;;;;;24.70;12.43;;;22.30;87.50;;;;;;7405975;19;20537;-85
2021/09/07 08:19:49;;;;;;;24.55;13.23;;;22.40;87.20;;;;;;7406809;19;20453;-86
2021/09/07 08:22:22;;;;;;;26.58;14.07;;;22.40;86.00;;;;;;7406046;19;20019;-85
2021/09/07 08:24:52;;;;;;;25.33;14.00;;;22.40;85.40;;;;;;7415230;19;20035;-84
2021/09/07 08:27:25;;;;;;;25.00;14.52;;;22.50;84.90;;;;;;7419982;19;20027;-83
2021/09/07 08:30:01;;;;;;;23.35;13.85;;;22.50;84.40;;;;;;7406220;19;20307;-84
2021/09/07 08:32:33;;;;;;;28.50;13.65;;;22.60;84.00;;;;;;7406607;19;20014;-85
2021/09/07 08:35:03;;;;;;;25.45;13.85;;;22.50;84.00;;;;;;7407581;19;20329;-84
2021/09/07 08:37:33;;;;;;;23.20;12.80;;;22.50;84.20;;;;;;7416486;19;20081;-85
2021/09/07 08:40:03;;;;;;;24.10;13.52;;;22.40;84.20;;;;;;7411813;19;20036;-84
2021/09/07 08:42:35;;;;;;;24.95;13.45;;;22.40;84.60;;;;;;7409174;19;20007;-85
2021/09/07 08:45:16;;;;;;;30.48;14.57;;;22.50;83.70;;;;;;7405942;19;20045;-84
2021/09/07 08:47:47;;;;;;;21.73;12.93;;;22.60;83.00;;;;;;7406450;19;20003;-86
2021/09/07 08:50:19;;;;;;;25.17;14.50;;;22.70;83.40;;;;;;7405850;19;20003;-86
2021/09/07 08:52:49;;;;;;;23.00;12.90;;;22.70;82.90;;;;;;7406809;19;20305;-84
2021/09/07 08:55:20;;;;;;;19.73;13.05;;;22.80;82.30;;;;;;7404285;19;20040;-84
2021/09/07 08:57:49;;;;;;;21.95;12.70;;;22.90;82.00;;;;;;7406627;19;20010;-84
2021/09/07 09:00:26;;;;;;;24.80;13.48;;;23.00;80.90;;;;;;7404735;19;20048;-84
2021/09/07 09:02:58;;;;;;;20.10;11.27;;;23.00;80.00;;;;;;7406489;19;20393;-85
2021/09/07 09:05:30;;;;;;;20.08;11.57;;;23.00;79.80;;;;;;7404979;19;20094;-84
2021/09/07 09:08:00;;;;;;;18.92;11.93;;;23.00;79.40;;;;;;7403750;19;20018;-84
2021/09/07 09:10:31;;;;;;;20.30;11.68;;;22.80;80.30;;;;;;7405223;19;20015;-83
2021/09/07 09:13:09;;;;;;;17.92;11.68;;;22.80;80.50;;;;;;7403376;19;20474;-83
2021/09/07 09:15:43;;;;;;;17.52;10.60;;;22.80;80.10;;;;;;7400738;19;20025;-83
2021/09/07 09:18:15;;;;;;;20.92;12.15;;;22.90;80.10;;;;;;7401839;19;20014;-84
2021/09/07 09:20:49;;;;;;;18.50;11.70;;;22.90;80.30;;;;;;7403603;19;20014;-85
2021/09/07 09:23:22;;;;;;;20.35;11.27;;;22.90;79.80;;;;;;7404726;19;20100;-84
2021/09/07 09:25:54;;;;;;;18.50;11.38;;;23.00;80.20;;;;;;7401268;19;20018;-85
2021/09/07 09:28:26;;;;;;;18.95;11.27;;;23.00;79.90;;;;;;7411590;19;20016;-83
2021/09/07 09:30:59;;;;;;;22.55;11.55;;;23.10;79.30;;;;;;7415289;19;20044;-83
2021/09/07 09:33:33;;;;;;;20.95;11.55;;;23.10;79.10;;;;;;7400059;19;20007;-83
2021/09/07 09:36:05;;;;;;;19.10;10.73;;;23.10;79.30;;;;;;7401954;19;20308;-85
2021/09/07 09:38:38;;;;;;;23.27;11.85;;;23.10;79.10;;;;;;7402703;19;20014;-85
2021/09/07 09:41:11;;;;;;;25.15;12.77;;;23.20;78.90;;;;;;7400878;19;20048;-83
2021/09/07 09:43:47;;;;;;;18.63;11.63;;;23.40;78.30;;;;;;7417431;19;20011;-83
2021/09/07 09:46:28;;;;;;;18.02;10.73;;;23.80;77.30;;;;;;7414515;19;20005;-84
2021/09/07 09:49:14;;;;;;;14.05;8.43;;;24.20;75.90;;;;;;7408830;19;20015;-86
2021/09/07 09:51:45;;;;;;;16.88;10.90;;;24.60;74.40;;;;;;7406583;19;20332;-84
2021/09/07 09:54:19;;;;;;;15.80;9.95;;;25.00;72.10;;;;;;7400275;19;20009;-85
2021/09/07 09:56:53;;;;;;;20.92;11.05;;;25.50;72.20;;;;;;7403738;19;20021;-85
2021/09/07 09:59:36;;;;;;;16.25;9.05;;;26.00;69.40;;;;;;7409553;19;20011;-83
2021/09/07 10:02:11;;;;;;;20.13;9.60;;;26.50;67.90;;;;;;7416815;19;20015;-83
2021/09/07 10:04:47;;;;;;;16.83;10.07;;;26.80;67.20;;;;;;7409428;19;20011;-86
2021/09/07 10:07:17;;;;;;;22.15;12.27;;;27.20;65.40;;;;;;7405822;19;20010;-85
2021/09/07 10:09:50;;;;;;;17.55;9.68;;;27.50;64.10;;;;;;7401717;19;20002;-85
2021/09/07 10:12:27;;;;;;;16.63;10.40;;;27.70;63.70;;;;;;7400699;19;20397;-83
2021/09/07 10:15:05;;;;;;;15.63;9.05;;;28.00;62.50;;;;;;7400677;19;20062;-84
2021/09/07 10:17:45;;;;;;;16.45;10.40;;;28.40;61.80;;;;;;7404134;19;20007;-84
2021/09/07 10:20:47;;;;;;;15.73;9.95;;;28.90;60.80;;;;;;7401924;19;20033;-83
2021/09/07 10:23:29;;;;;;;17.87;11.20;;;29.20;59.50;;;;;;7403062;19;20018;-84
2021/09/07 10:26:02;;;;;;;18.15;11.57;;;29.30;58.60;;;;;;7401407;19;20034;-83
2021/09/07 10:28:42;;;;;;;16.88;11.75;;;28.80;59.00;;;;;;7399513;19;20011;-85
2021/09/07 10:31:14;;;;;;;20.48;12.05;;;28.40;59.10;;;;;;7416051;19;20007;-84
2021/09/07 10:34:01;;;;;;;15.65;9.07;;;28.40;60.60;;;;;;7413418;19;20010;-85
2021/09/07 10:36:35;;;;;;;16.30;11.02;;;28.70;59.80;;;;;;7401102;19;20015;-85
2021/09/07 10:39:09;;;;;;;14.57;9.07;;;28.70;59.00;;;;;;7401338;19;20011;-83
2021/09/07 10:41:49;;;;;;;18.45;10.60;;;29.60;58.50;;;;;;7395151;19;20110;-84
2021/09/07 10:47:16;;;;;;;13.30;8.32;;;31.30;55.70;;;;;;7403194;19;20015;-86
2021/09/07 10:49:56;;;;;;;16.52;9.73;;;31.70;54.20;;;;;;7402261;19;20025;-85
2021/09/07 10:52:35;;;;;;;13.90;8.85;;;32.50;53.00;;;;;;7403395;19;20011;-86
2021/09/07 10:55:21;;;;;;;13.20;8.48;;;32.90;51.60;;;;;;7402919;19;20089;-85
2021/09/07 10:58:02;;;;;;;13.27;8.80;;;33.50;50.40;;;;;;7418362;19;20010;-86
2021/09/07 11:00:42;;;;;;;13.45;8.60;;;33.80;49.50;;;;;;7416486;19;20018;-85
2021/09/07 11:03:27;;;;;;;12.68;8.52;;;34.60;48.60;;;;;;7415701;19;20017;-86
2021/09/07 11:05:59;;;;;;;12.10;8.13;;;35.10;46.90;;;;;;7406116;19;20021;-87
2021/09/07 11:08:43;;;;;;;20.17;9.43;;;34.80;46.50;;;;;;7406711;19;20010;-87
2021/09/07 11:11:27;;;;;;;13.60;9.23;;;34.50;46.30;;;;;;7406631;19;20011;-87
2021/09/07 11:14:16;;;;;;;12.75;7.90;;;34.90;46.40;;;;;;7404025;19;20022;-87
2021/09/07 11:16:54;;;;;;;14.27;9.50;;;35.60;46.00;;;;;;7406495;19;20043;-87
2021/09/07 11:19:27;;;;;;;13.32;8.35;;;36.60;44.40;;;;;;7422686;19;20010;-86
2021/09/07 11:21:59;;;;;;;11.95;7.70;;;37.30;43.40;;;;;;7422820;19;20052;-86
2021/09/07 11:24:29;;;;;;;9.65;7.72;;;37.80;42.10;;;;;;7405757;19;20018;-86
2021/09/07 11:27:12;;;;;;;13.85;8.38;;;37.50;41.60;;;;;;7404423;19;20010;-86
2021/09/07 11:29:42;;;;;;;13.73;9.27;;;37.20;42.30;;;;;;7404171;19;20102;-87
2021/09/07 11:32:26;;;;;;;14.20;10.70;;;37.00;41.50;;;;;;7404220;19;20016;-86
2021/09/07 11:35:11;;;;;;;16.50;10.57;;;35.50;42.90;;;;;;7421739;19;20029;-86
2021/09/07 11:37:44;;;;;;;14.40;10.98;;;34.30;44.20;;;;;;7413948;19;20015;-86
2021/09/07 11:40:18;;;;;;;18.23;10.55;;;32.30;46.50;;;;;;7408597;19;20007;-86
2021/09/07 11:42:51;;;;;;;18.63;9.60;;;31.30;48.50;;;;;;7406047;19;20023;-86
2021/09/07 11:45:28;;;;;;;15.32;10.82;;;31.30;48.20;;;;;;7411280;19;20010;-85
2021/09/07 11:47:58;;;;;;;16.58;9.43;;;31.50;47.90;;;;;;7420094;19;20327;-86
2021/09/07 11:50:30;;;;;;;14.38;8.82;;;31.80;48.40;;;;;;7412807;19;20389;-85
2021/09/07 11:53:08;;;;;;;14.68;8.63;;;32.40;47.90;;;;;;7404609;19;20141;-85
2021/09/07 11:55:37;;;;;;;;;;;32.70;47.10;;;;;;7410332;19;20018;-85
2021/09/07 11:58:08;;;;;;;14.90;8.68;;;32.80;46.80;;;;;;7407225;19;20293;-85
2021/09/07 12:00:40;;;;;;;15.55;9.18;;;33.10;46.30;;;;;;7403853;19;20017;-85
2021/09/07 12:03:15;;;;;;;16.33;9.13;;;33.50;45.60;;;;;;7407502;19;20102;-85
2021/09/07 12:05:57;;;;;;;12.77;8.07;;;33.70;46.00;;;;;;7419625;19;20039;-85
2021/09/07 12:08:41;;;;;;;11.48;7.63;;;33.80;45.10;;;;;;7417660;19;20493;-85
2021/09/07 12:11:14;;;;;;;12.27;7.82;;;34.00;44.00;;;;;;7405024;19;20035;-86
2021/09/07 12:13:44;;;;;;;18.10;7.55;;;34.50;44.10;;;;;;7401221;19;20436;-86
2021/09/07 12:16:14;;;;;;;10.70;7.95;;;35.00;43.50;;;;;;7401913;19;20018;-85
2021/09/07 12:18:48;;;;;;;12.50;8.73;;;34.90;43.30;;;;;;7404116;19;20026;-85
2021/09/07 12:21:23;;;;;;;12.00;7.57;;;35.30;42.80;;;;;;7406280;19;20011;-87
2021/09/07 12:23:57;;;;;;;9.73;6.60;;;35.80;42.30;;;;;;7403077;19;20024;-86
2021/09/07 12:26:46;;;;;;;13.68;7.70;;;36.10;42.50;;;;;;7404785;19;20114;-86
2021/09/07 12:29:20;;;;;;;12.52;7.53;;;37.10;41.10;;;;;;7401276;19;20044;-87
2021/09/07 12:31:50;;;;;;;13.10;7.15;;;37.60;40.60;;;;;;7402803;19;20021;-86
2021/09/07 12:34:26;;;;;;;11.88;6.20;;;37.60;40.10;;;;;;7405221;19;20054;-86
2021/09/07 12:36:58;;;;;;;8.95;6.68;;;37.30;40.50;;;;;;7407886;19;20438;-87
2021/09/07 12:39:35;;;;;;;9.98;7.03;;;37.20;40.30;;;;;;7416693;19;20436;-87
2021/09/07 12:42:05;;;;;;;11.20;6.72;;;37.30;39.90;;;;;;7406501;19;20009;-86
2021/09/07 12:44:42;;;;;;;11.02;6.60;;;37.40;39.70;;;;;;7404418;19;20044;-86
2021/09/07 12:47:22;;;;;;;10.27;6.43;;;37.40;39.40;;;;;;7407405;19;20023;-87
2021/09/07 12:49:51;;;;;;;9.13;5.85;;;37.40;39.60;;;;;;7402575;19;20040;-87
2021/09/07 12:52:27;;;;;;;8.45;6.68;;;37.60;39.20;;;;;;7402888;19;20398;-86
2021/09/07 12:55:03;;;;;;;8.93;6.60;;;37.70;39.60;;;;;;7402711;19;20467;-86
2021/09/07 12:57:34;;;;;;;9.82;6.95;;;38.70;38.80;;;;;;7405786;19;20014;-87
2021/09/07 13:00:08;;;;;;;9.75;6.90;;;39.50;37.70;;;;;;7403695;19;20084;-86
2021/09/07 13:02:39;;;;;;;11.80;7.50;;;38.50;37.40;;;;;;7404461;19;20014;-85